sensor_id;sensor_type;location;lat;lon;timestamp;temperature;humidity
420;DHT22;42600;54.408;13.016;2024-02-28T00:00:52;1.70;92.70
420;DHT22;42600;54.408;13.016;2024-02-28T00:03:18;1.70;92.70
420;DHT22;42600;54.408;13.016;2024-02-28T00:05:45;1.80;92.70
420;DHT22;42600;54.408;13.016;2024-02-28T00:08:12;1.80;92.70
420;DHT22;42600;54.408;13.016;2024-02-28T00:10:38;1.90;92.70
420;DHT22;42600;54.408;13.016;2024-02-28T00:13:05;1.90;92.70
420;DHT22;42600;54.408;13.016;2024-02-28T00:15:33;2.00;92.70
420;DHT22;42600;54.408;13.016;2024-02-28T00:18:00;2.00;92.70
420;DHT22;42600;54.408;13.016;2024-02-28T00:20:27;2.00;92.70
420;DHT22;42600;54.408;13.016;2024-02-28T00:22:55;2.00;92.70
420;DHT22;42600;54.408;13.016;2024-02-28T00:25:21;2.00;92.70
420;DHT22;42600;54.408;13.016;2024-02-28T00:27:48;2.00;92.70
420;DHT22;42600;54.408;13.016;2024-02-28T00:30:14;2.00;92.70
420;DHT22;42600;54.408;13.016;2024-02-28T00:32:42;2.10;92.70
420;DHT22;42600;54.408;13.016;2024-02-28T00:35:09;2.10;92.70
420;DHT22;42600;54.408;13.016;2024-02-28T00:37:35;2.10;92.70
420;DHT22;42600;54.408;13.016;2024-02-28T00:40:02;2.10;92.70
420;DHT22;42600;54.408;13.016;2024-02-28T00:42:29;2.10;92.70
420;DHT22;42600;54.408;13.016;2024-02-28T00:44:56;2.10;92.70
420;DHT22;42600;54.408;13.016;2024-02-28T00:47:22;2.10;92.70
420;DHT22;42600;54.408;13.016;2024-02-28T00:49:50;2.10;92.70
420;DHT22;42600;54.408;13.016;2024-02-28T00:52:16;2.10;92.70
420;DHT22;42600;54.408;13.016;2024-02-28T00:54:43;2.10;92.70
420;DHT22;42600;54.408;13.016;2024-02-28T00:57:09;2.20;92.70
420;DHT22;42600;54.408;13.016;2024-02-28T00:59:36;2.10;92.70
420;DHT22;42600;54.408;13.016;2024-02-28T01:02:03;2.10;92.70
420;DHT22;42600;54.408;13.016;2024-02-28T01:04:29;2.00;92.70
420;DHT22;42600;54.408;13.016;2024-02-28T01:06:57;2.00;92.70
420;DHT22;42600;54.408;13.016;2024-02-28T01:09:24;2.10;92.70
420;DHT22;42600;54.408;13.016;2024-02-28T01:11:50;2.10;92.70
420;DHT22;42600;54.408;13.016;2024-02-28T01:14:17;2.00;92.70
420;DHT22;42600;54.408;13.016;2024-02-28T01:16:43;2.10;92.70
420;DHT22;42600;54.408;13.016;2024-02-28T01:19:10;2.10;92.70
420;DHT22;42600;54.408;13.016;2024-02-28T01:21:38;2.10;92.70
420;DHT22;42600;54.408;13.016;2024-02-28T01:24:06;2.10;92.70
420;DHT22;42600;54.408;13.016;2024-02-28T01:26:32;2.10;92.70
420;DHT22;42600;54.408;13.016;2024-02-28T01:28:59;2.10;92.70
420;DHT22;42600;54.408;13.016;2024-02-28T01:31:25;2.10;92.70
420;DHT22;42600;54.408;13.016;2024-02-28T01:33:52;2.10;92.70
420;DHT22;42600;54.408;13.016;2024-02-28T01:36:19;2.10;92.70
420;DHT22;42600;54.408;13.016;2024-02-28T01:38:45;2.20;92.70
420;DHT22;42600;54.408;13.016;2024-02-28T01:41:13;2.20;92.70
420;DHT22;42600;54.408;13.016;2024-02-28T01:43:39;2.20;92.70
420;DHT22;42600;54.408;13.016;2024-02-28T01:46:22;2.20;92.70
420;DHT22;42600;54.408;13.016;2024-02-28T01:48:50;2.10;92.70
420;DHT22;42600;54.408;13.016;2024-02-28T01:51:16;2.20;92.70
420;DHT22;42600;54.408;13.016;2024-02-28T01:53:44;2.20;92.70
420;DHT22;42600;54.408;13.016;2024-02-28T01:56:13;2.10;92.70
420;DHT22;42600;54.408;13.016;2024-02-28T01:58:42;2.10;92.70
420;DHT22;42600;54.408;13.016;2024-02-28T02:01:09;2.10;92.70
420;DHT22;42600;54.408;13.016;2024-02-28T02:03:36;2.00;92.70
420;DHT22;42600;54.408;13.016;2024-02-28T02:06:03;2.00;92.70
420;DHT22;42600;54.408;13.016;2024-02-28T02:08:30;2.10;92.70
420;DHT22;42600;54.408;13.016;2024-02-28T02:10:57;2.10;92.70
420;DHT22;42600;54.408;13.016;2024-02-28T02:13:25;2.10;92.70
420;DHT22;42600;54.408;13.016;2024-02-28T02:15:52;2.10;92.70
420;DHT22;42600;54.408;13.016;2024-02-28T02:18:18;2.10;92.70
420;DHT22;42600;54.408;13.016;2024-02-28T02:20:49;2.20;92.70
420;DHT22;42600;54.408;13.016;2024-02-28T02:23:17;2.20;92.70
420;DHT22;42600;54.408;13.016;2024-02-28T02:25:44;2.20;92.70
420;DHT22;42600;54.408;13.016;2024-02-28T02:28:11;2.20;92.70
420;DHT22;42600;54.408;13.016;2024-02-28T02:30:38;2.20;92.70
420;DHT22;42600;54.408;13.016;2024-02-28T02:33:06;2.20;92.70
420;DHT22;42600;54.408;13.016;2024-02-28T02:35:33;2.20;92.70
420;DHT22;42600;54.408;13.016;2024-02-28T02:38:00;2.20;92.70
420;DHT22;42600;54.408;13.016;2024-02-28T02:40:28;2.20;92.70
420;DHT22;42600;54.408;13.016;2024-02-28T02:42:54;2.20;92.70
420;DHT22;42600;54.408;13.016;2024-02-28T02:45:21;2.20;92.70
420;DHT22;42600;54.408;13.016;2024-02-28T02:47:47;2.20;92.70
420;DHT22;42600;54.408;13.016;2024-02-28T02:50:14;2.20;92.70
420;DHT22;42600;54.408;13.016;2024-02-28T02:52:41;2.20;92.70
420;DHT22;42600;54.408;13.016;2024-02-28T02:55:08;2.20;92.70
420;DHT22;42600;54.408;13.016;2024-02-28T02:57:36;2.20;92.70
420;DHT22;42600;54.408;13.016;2024-02-28T03:00:03;2.20;92.70
420;DHT22;42600;54.408;13.016;2024-02-28T03:02:29;2.20;92.70
420;DHT22;42600;54.408;13.016;2024-02-28T03:04:57;2.20;92.70
420;DHT22;42600;54.408;13.016;2024-02-28T03:07:23;2.20;92.70
420;DHT22;42600;54.408;13.016;2024-02-28T03:09:50;2.20;92.70
420;DHT22;42600;54.408;13.016;2024-02-28T03:12:17;2.20;92.70
420;DHT22;42600;54.408;13.016;2024-02-28T03:14:44;2.20;92.70
420;DHT22;42600;54.408;13.016;2024-02-28T03:17:11;2.20;92.70
420;DHT22;42600;54.408;13.016;2024-02-28T03:19:37;2.20;92.70
420;DHT22;42600;54.408;13.016;2024-02-28T03:22:04;2.20;92.70
420;DHT22;42600;54.408;13.016;2024-02-28T03:24:30;2.20;92.70
420;DHT22;42600;54.408;13.016;2024-02-28T03:27:00;2.20;92.70
420;DHT22;42600;54.408;13.016;2024-02-28T03:29:26;2.20;92.70
420;DHT22;42600;54.408;13.016;2024-02-28T03:31:54;2.10;92.70
420;DHT22;42600;54.408;13.016;2024-02-28T03:34:21;2.10;92.70
420;DHT22;42600;54.408;13.016;2024-02-28T03:36:47;2.10;92.70
420;DHT22;42600;54.408;13.016;2024-02-28T03:39:14;2.10;92.70
420;DHT22;42600;54.408;13.016;2024-02-28T03:41:41;2.00;92.70
420;DHT22;42600;54.408;13.016;2024-02-28T03:44:07;2.00;92.70
420;DHT22;42600;54.408;13.016;2024-02-28T03:46:34;2.10;92.70
420;DHT22;42600;54.408;13.016;2024-02-28T03:49:02;2.10;92.70
420;DHT22;42600;54.408;13.016;2024-02-28T03:51:28;2.20;92.70
420;DHT22;42600;54.408;13.016;2024-02-28T03:53:55;2.10;92.70
420;DHT22;42600;54.408;13.016;2024-02-28T03:56:22;2.10;92.70
420;DHT22;42600;54.408;13.016;2024-02-28T03:58:50;2.00;92.70
420;DHT22;42600;54.408;13.016;2024-02-28T04:01:16;2.00;92.70
420;DHT22;42600;54.408;13.016;2024-02-28T04:03:43;2.00;92.70
420;DHT22;42600;54.408;13.016;2024-02-28T04:06:11;2.10;92.70
420;DHT22;42600;54.408;13.016;2024-02-28T04:08:37;2.10;92.70
420;DHT22;42600;54.408;13.016;2024-02-28T04:11:04;2.20;92.70
420;DHT22;42600;54.408;13.016;2024-02-28T04:13:31;2.20;92.70
420;DHT22;42600;54.408;13.016;2024-02-28T04:15:57;2.20;92.70
420;DHT22;42600;54.408;13.016;2024-02-28T04:18:24;2.20;92.70
420;DHT22;42600;54.408;13.016;2024-02-28T04:20:50;2.20;92.70
420;DHT22;42600;54.408;13.016;2024-02-28T04:23:18;2.20;92.70
420;DHT22;42600;54.408;13.016;2024-02-28T04:25:45;2.20;92.70
420;DHT22;42600;54.408;13.016;2024-02-28T04:28:11;2.20;92.70
420;DHT22;42600;54.408;13.016;2024-02-28T04:30:38;2.20;92.70
420;DHT22;42600;54.408;13.016;2024-02-28T04:33:05;2.20;92.70
420;DHT22;42600;54.408;13.016;2024-02-28T04:35:31;2.20;92.70
420;DHT22;42600;54.408;13.016;2024-02-28T04:37:58;2.20;92.70
420;DHT22;42600;54.408;13.016;2024-02-28T04:40:26;2.20;92.70
420;DHT22;42600;54.408;13.016;2024-02-28T04:42:52;2.20;92.70
420;DHT22;42600;54.408;13.016;2024-02-28T04:45:19;2.20;92.70
420;DHT22;42600;54.408;13.016;2024-02-28T04:47:45;2.10;92.70
420;DHT22;42600;54.408;13.016;2024-02-28T04:50:12;2.10;92.70
420;DHT22;42600;54.408;13.016;2024-02-28T04:52:38;2.10;92.70
420;DHT22;42600;54.408;13.016;2024-02-28T04:55:05;2.10;92.70
420;DHT22;42600;54.408;13.016;2024-02-28T04:57:33;2.10;92.70
420;DHT22;42600;54.408;13.016;2024-02-28T05:00:00;2.10;92.70
420;DHT22;42600;54.408;13.016;2024-02-28T05:02:26;2.20;92.70
420;DHT22;42600;54.408;13.016;2024-02-28T05:04:53;2.20;92.70
420;DHT22;42600;54.408;13.016;2024-02-28T05:07:20;2.20;92.70
420;DHT22;42600;54.408;13.016;2024-02-28T05:09:46;2.20;92.70
420;DHT22;42600;54.408;13.016;2024-02-28T05:12:13;2.10;92.70
420;DHT22;42600;54.408;13.016;2024-02-28T05:14:40;2.20;92.70
420;DHT22;42600;54.408;13.016;2024-02-28T05:17:07;2.20;92.70
420;DHT22;42600;54.408;13.016;2024-02-28T05:19:33;2.20;92.70
420;DHT22;42600;54.408;13.016;2024-02-28T05:21:59;2.20;92.70
420;DHT22;42600;54.408;13.016;2024-02-28T05:24:27;2.20;92.70
420;DHT22;42600;54.408;13.016;2024-02-28T05:26:53;2.30;92.70
420;DHT22;42600;54.408;13.016;2024-02-28T05:29:20;2.30;92.70
420;DHT22;42600;54.408;13.016;2024-02-28T05:31:48;2.30;92.70
420;DHT22;42600;54.408;13.016;2024-02-28T05:34:14;2.30;92.70
420;DHT22;42600;54.408;13.016;2024-02-28T05:36:41;2.30;92.70
420;DHT22;42600;54.408;13.016;2024-02-28T05:39:08;2.20;92.70
420;DHT22;42600;54.408;13.016;2024-02-28T05:41:34;2.30;92.70
420;DHT22;42600;54.408;13.016;2024-02-28T05:44:01;2.30;92.70
420;DHT22;42600;54.408;13.016;2024-02-28T05:46:27;2.30;92.70
420;DHT22;42600;54.408;13.016;2024-02-28T05:48:55;2.30;92.70
420;DHT22;42600;54.408;13.016;2024-02-28T05:51:22;2.30;92.70
420;DHT22;42600;54.408;13.016;2024-02-28T05:53:48;2.30;92.70
420;DHT22;42600;54.408;13.016;2024-02-28T05:56:15;2.30;92.70
420;DHT22;42600;54.408;13.016;2024-02-28T05:58:46;2.30;92.70
420;DHT22;42600;54.408;13.016;2024-02-28T06:01:15;2.30;92.70
420;DHT22;42600;54.408;13.016;2024-02-28T06:03:41;2.20;92.70
420;DHT22;42600;54.408;13.016;2024-02-28T06:06:09;2.30;92.70
420;DHT22;42600;54.408;13.016;2024-02-28T06:08:38;2.30;92.70
420;DHT22;42600;54.408;13.016;2024-02-28T06:11:05;2.30;92.70
420;DHT22;42600;54.408;13.016;2024-02-28T06:13:31;2.20;92.70
420;DHT22;42600;54.408;13.016;2024-02-28T06:15:58;2.20;92.70
420;DHT22;42600;54.408;13.016;2024-02-28T06:18:26;2.20;92.70
420;DHT22;42600;54.408;13.016;2024-02-28T06:20:53;2.20;92.70
420;DHT22;42600;54.408;13.016;2024-02-28T06:23:22;2.30;92.70
420;DHT22;42600;54.408;13.016;2024-02-28T06:25:49;2.20;92.70
420;DHT22;42600;54.408;13.016;2024-02-28T06:28:16;2.20;92.70
420;DHT22;42600;54.408;13.016;2024-02-28T06:30:43;2.20;92.70
420;DHT22;42600;54.408;13.016;2024-02-28T06:33:11;2.20;92.70
420;DHT22;42600;54.408;13.016;2024-02-28T06:35:38;2.20;92.70
420;DHT22;42600;54.408;13.016;2024-02-28T06:38:04;2.20;92.70
420;DHT22;42600;54.408;13.016;2024-02-28T06:40:33;2.20;92.70
420;DHT22;42600;54.408;13.016;2024-02-28T06:42:59;2.20;92.70
420;DHT22;42600;54.408;13.016;2024-02-28T06:45:26;2.20;92.70
420;DHT22;42600;54.408;13.016;2024-02-28T06:47:52;2.20;92.70
420;DHT22;42600;54.408;13.016;2024-02-28T06:50:19;2.20;92.70
420;DHT22;42600;54.408;13.016;2024-02-28T06:52:45;2.20;92.70
420;DHT22;42600;54.408;13.016;2024-02-28T06:55:12;2.20;92.70
420;DHT22;42600;54.408;13.016;2024-02-28T06:57:42;2.20;92.70
420;DHT22;42600;54.408;13.016;2024-02-28T07:00:10;2.20;92.70
420;DHT22;42600;54.408;13.016;2024-02-28T07:02:38;2.20;92.70
420;DHT22;42600;54.408;13.016;2024-02-28T07:05:04;2.20;92.70
420;DHT22;42600;54.408;13.016;2024-02-28T07:07:32;2.20;92.70
420;DHT22;42600;54.408;13.016;2024-02-28T07:09:58;2.20;92.70
420;DHT22;42600;54.408;13.016;2024-02-28T07:12:25;2.10;92.70
420;DHT22;42600;54.408;13.016;2024-02-28T07:14:53;2.20;92.70
420;DHT22;42600;54.408;13.016;2024-02-28T07:17:20;2.20;92.70
420;DHT22;42600;54.408;13.016;2024-02-28T07:19:47;2.20;92.70
420;DHT22;42600;54.408;13.016;2024-02-28T07:22:14;2.30;92.70
420;DHT22;42600;54.408;13.016;2024-02-28T07:24:40;2.30;92.70
420;DHT22;42600;54.408;13.016;2024-02-28T07:27:07;2.30;92.70
420;DHT22;42600;54.408;13.016;2024-02-28T07:29:34;2.20;92.70
420;DHT22;42600;54.408;13.016;2024-02-28T07:32:04;2.20;92.70
420;DHT22;42600;54.408;13.016;2024-02-28T07:34:31;2.30;92.70
420;DHT22;42600;54.408;13.016;2024-02-28T07:36:57;2.40;92.70
420;DHT22;42600;54.408;13.016;2024-02-28T07:39:24;2.40;92.70
420;DHT22;42600;54.408;13.016;2024-02-28T07:41:50;2.70;92.70
420;DHT22;42600;54.408;13.016;2024-02-28T07:44:17;2.60;92.70
420;DHT22;42600;54.408;13.016;2024-02-28T07:46:44;2.50;92.70
420;DHT22;42600;54.408;13.016;2024-02-28T07:49:12;2.50;92.70
420;DHT22;42600;54.408;13.016;2024-02-28T07:51:39;2.50;92.70
420;DHT22;42600;54.408;13.016;2024-02-28T07:54:07;2.50;92.70
420;DHT22;42600;54.408;13.016;2024-02-28T07:56:33;2.50;92.70
420;DHT22;42600;54.408;13.016;2024-02-28T07:59:00;2.50;92.70
420;DHT22;42600;54.408;13.016;2024-02-28T08:01:27;2.50;92.70
420;DHT22;42600;54.408;13.016;2024-02-28T08:03:53;2.50;92.70
420;DHT22;42600;54.408;13.016;2024-02-28T08:06:21;2.50;92.70
420;DHT22;42600;54.408;13.016;2024-02-28T08:08:48;2.50;92.70
420;DHT22;42600;54.408;13.016;2024-02-28T08:11:14;2.50;92.70
420;DHT22;42600;54.408;13.016;2024-02-28T08:13:41;2.40;92.70
420;DHT22;42600;54.408;13.016;2024-02-28T08:16:09;2.40;92.70
420;DHT22;42600;54.408;13.016;2024-02-28T08:18:35;2.40;92.70
420;DHT22;42600;54.408;13.016;2024-02-28T08:21:02;2.40;92.70
420;DHT22;42600;54.408;13.016;2024-02-28T08:23:31;2.40;92.70
420;DHT22;42600;54.408;13.016;2024-02-28T08:25:57;2.40;92.70
420;DHT22;42600;54.408;13.016;2024-02-28T08:28:24;2.50;92.70
420;DHT22;42600;54.408;13.016;2024-02-28T08:30:51;2.60;92.70
420;DHT22;42600;54.408;13.016;2024-02-28T08:33:17;2.60;92.70
420;DHT22;42600;54.408;13.016;2024-02-28T08:35:44;2.60;92.70
420;DHT22;42600;54.408;13.016;2024-02-28T08:38:10;2.60;92.70
420;DHT22;42600;54.408;13.016;2024-02-28T08:40:38;2.60;92.70
420;DHT22;42600;54.408;13.016;2024-02-28T08:43:05;2.60;92.70
420;DHT22;42600;54.408;13.016;2024-02-28T08:45:31;2.70;92.70
420;DHT22;42600;54.408;13.016;2024-02-28T08:47:58;2.70;92.70
420;DHT22;42600;54.408;13.016;2024-02-28T08:50:26;2.70;92.70
420;DHT22;42600;54.408;13.016;2024-02-28T08:52:53;2.70;92.70
420;DHT22;42600;54.408;13.016;2024-02-28T08:55:19;2.70;92.70
420;DHT22;42600;54.408;13.016;2024-02-28T08:57:48;2.70;92.70
420;DHT22;42600;54.408;13.016;2024-02-28T09:00:15;2.80;92.70
420;DHT22;42600;54.408;13.016;2024-02-28T09:02:43;2.80;92.70
420;DHT22;42600;54.408;13.016;2024-02-28T09:05:09;2.80;92.70
420;DHT22;42600;54.408;13.016;2024-02-28T09:07:36;3.00;92.70
420;DHT22;42600;54.408;13.016;2024-02-28T09:10:04;3.00;92.70
420;DHT22;42600;54.408;13.016;2024-02-28T09:12:31;3.30;92.70
420;DHT22;42600;54.408;13.016;2024-02-28T09:14:59;3.10;92.70
420;DHT22;42600;54.408;13.016;2024-02-28T09:17:26;3.20;92.70
420;DHT22;42600;54.408;13.016;2024-02-28T09:19:52;3.20;92.70
420;DHT22;42600;54.408;13.016;2024-02-28T09:22:19;3.20;92.70
420;DHT22;42600;54.408;13.016;2024-02-28T09:24:46;3.20;92.70
420;DHT22;42600;54.408;13.016;2024-02-28T09:27:13;3.20;92.70
420;DHT22;42600;54.408;13.016;2024-02-28T09:29:39;3.20;92.70
420;DHT22;42600;54.408;13.016;2024-02-28T09:32:07;3.20;92.70
420;DHT22;42600;54.408;13.016;2024-02-28T09:34:34;3.20;92.70
420;DHT22;42600;54.408;13.016;2024-02-28T09:37:01;3.20;92.70
420;DHT22;42600;54.408;13.016;2024-02-28T09:39:29;3.10;92.70
420;DHT22;42600;54.408;13.016;2024-02-28T09:41:56;3.20;92.70
420;DHT22;42600;54.408;13.016;2024-02-28T09:44:23;3.10;92.70
420;DHT22;42600;54.408;13.016;2024-02-28T09:46:51;3.10;92.70
420;DHT22;42600;54.408;13.016;2024-02-28T09:49:19;3.10;92.70
420;DHT22;42600;54.408;13.016;2024-02-28T09:51:49;3.10;92.70
420;DHT22;42600;54.408;13.016;2024-02-28T09:54:16;3.10;92.70
420;DHT22;42600;54.408;13.016;2024-02-28T09:56:42;3.10;92.70
420;DHT22;42600;54.408;13.016;2024-02-28T09:59:10;3.20;92.70
420;DHT22;42600;54.408;13.016;2024-02-28T10:01:42;3.10;92.70
420;DHT22;42600;54.408;13.016;2024-02-28T10:04:09;3.10;92.70
420;DHT22;42600;54.408;13.016;2024-02-28T10:06:39;3.10;92.70
420;DHT22;42600;54.408;13.016;2024-02-28T10:09:06;3.10;92.70
420;DHT22;42600;54.408;13.016;2024-02-28T10:11:32;3.10;92.70
420;DHT22;42600;54.408;13.016;2024-02-28T10:14:01;3.10;92.70
420;DHT22;42600;54.408;13.016;2024-02-28T10:16:27;3.10;92.70
420;DHT22;42600;54.408;13.016;2024-02-28T10:18:54;3.10;92.70
420;DHT22;42600;54.408;13.016;2024-02-28T10:21:21;3.20;92.70
420;DHT22;42600;54.408;13.016;2024-02-28T10:23:50;3.20;92.70
420;DHT22;42600;54.408;13.016;2024-02-28T10:26:16;3.20;92.70
420;DHT22;42600;54.408;13.016;2024-02-28T10:28:43;3.30;92.70
420;DHT22;42600;54.408;13.016;2024-02-28T10:31:10;3.30;92.70
420;DHT22;42600;54.408;13.016;2024-02-28T10:33:37;3.40;92.70
420;DHT22;42600;54.408;13.016;2024-02-28T10:36:04;3.40;92.70
420;DHT22;42600;54.408;13.016;2024-02-28T10:38:32;3.50;92.70
420;DHT22;42600;54.408;13.016;2024-02-28T10:41:01;3.50;92.70
420;DHT22;42600;54.408;13.016;2024-02-28T10:43:28;3.60;92.70
420;DHT22;42600;54.408;13.016;2024-02-28T10:45:56;3.60;92.70
420;DHT22;42600;54.408;13.016;2024-02-28T10:48:24;3.70;92.70
420;DHT22;42600;54.408;13.016;2024-02-28T10:50:51;3.70;92.70
420;DHT22;42600;54.408;13.016;2024-02-28T10:53:22;3.70;92.70
420;DHT22;42600;54.408;13.016;2024-02-28T10:55:49;3.80;92.70
420;DHT22;42600;54.408;13.016;2024-02-28T10:58:19;3.80;92.70
420;DHT22;42600;54.408;13.016;2024-02-28T11:00:48;3.80;92.70
420;DHT22;42600;54.408;13.016;2024-02-28T11:03:17;3.80;92.70
420;DHT22;42600;54.408;13.016;2024-02-28T11:05:44;3.80;92.70
420;DHT22;42600;54.408;13.016;2024-02-28T11:08:19;3.90;92.70
420;DHT22;42600;54.408;13.016;2024-02-28T11:10:47;3.90;92.70
420;DHT22;42600;54.408;13.016;2024-02-28T11:13:22;3.90;92.70
420;DHT22;42600;54.408;13.016;2024-02-28T11:15:49;3.90;92.70
420;DHT22;42600;54.408;13.016;2024-02-28T11:18:16;3.90;92.70
420;DHT22;42600;54.408;13.016;2024-02-28T11:20:42;3.90;92.70
420;DHT22;42600;54.408;13.016;2024-02-28T11:23:11;3.90;92.70
420;DHT22;42600;54.408;13.016;2024-02-28T11:25:39;4.00;92.70
420;DHT22;42600;54.408;13.016;2024-02-28T11:28:06;4.00;92.70
420;DHT22;42600;54.408;13.016;2024-02-28T11:30:34;4.10;92.70
420;DHT22;42600;54.408;13.016;2024-02-28T11:33:01;4.10;92.70
420;DHT22;42600;54.408;13.016;2024-02-28T11:35:27;4.10;92.70
420;DHT22;42600;54.408;13.016;2024-02-28T11:37:54;4.10;92.70
420;DHT22;42600;54.408;13.016;2024-02-28T11:40:22;4.10;92.70
420;DHT22;42600;54.408;13.016;2024-02-28T11:42:50;4.20;92.70
420;DHT22;42600;54.408;13.016;2024-02-28T11:45:17;4.10;92.70
420;DHT22;42600;54.408;13.016;2024-02-28T11:47:45;4.10;92.70
420;DHT22;42600;54.408;13.016;2024-02-28T11:50:12;4.10;92.70
420;DHT22;42600;54.408;13.016;2024-02-28T11:52:40;4.10;92.70
420;DHT22;42600;54.408;13.016;2024-02-28T11:55:07;4.20;92.70
420;DHT22;42600;54.408;13.016;2024-02-28T11:57:33;4.20;92.70
420;DHT22;42600;54.408;13.016;2024-02-28T12:00:03;4.20;92.70
420;DHT22;42600;54.408;13.016;2024-02-28T12:02:30;4.20;92.70
420;DHT22;42600;54.408;13.016;2024-02-28T12:05:02;4.30;92.70
420;DHT22;42600;54.408;13.016;2024-02-28T12:07:27;4.30;92.70
420;DHT22;42600;54.408;13.016;2024-02-28T12:09:55;4.30;92.70
420;DHT22;42600;54.408;13.016;2024-02-28T12:12:21;4.30;92.70
420;DHT22;42600;54.408;13.016;2024-02-28T12:14:48;4.40;92.70
420;DHT22;42600;54.408;13.016;2024-02-28T12:17:15;4.40;92.70
420;DHT22;42600;54.408;13.016;2024-02-28T12:19:42;4.40;92.70
420;DHT22;42600;54.408;13.016;2024-02-28T12:22:10;4.50;92.70
420;DHT22;42600;54.408;13.016;2024-02-28T12:24:36;4.50;92.70
420;DHT22;42600;54.408;13.016;2024-02-28T12:27:03;4.60;92.70
420;DHT22;42600;54.408;13.016;2024-02-28T12:29:30;4.60;92.70
420;DHT22;42600;54.408;13.016;2024-02-28T12:31:57;4.60;92.70
420;DHT22;42600;54.408;13.016;2024-02-28T12:34:23;4.70;92.70
420;DHT22;42600;54.408;13.016;2024-02-28T12:36:50;4.70;92.70
420;DHT22;42600;54.408;13.016;2024-02-28T12:39:18;4.80;92.70
420;DHT22;42600;54.408;13.016;2024-02-28T12:41:44;4.90;92.70
420;DHT22;42600;54.408;13.016;2024-02-28T12:44:11;4.90;92.70
420;DHT22;42600;54.408;13.016;2024-02-28T12:46:37;4.90;92.70
420;DHT22;42600;54.408;13.016;2024-02-28T12:49:04;5.00;92.70
420;DHT22;42600;54.408;13.016;2024-02-28T12:51:39;5.00;92.70
420;DHT22;42600;54.408;13.016;2024-02-28T12:54:06;5.10;92.70
420;DHT22;42600;54.408;13.016;2024-02-28T12:56:34;5.10;92.70
420;DHT22;42600;54.408;13.016;2024-02-28T12:59:01;5.20;92.70
420;DHT22;42600;54.408;13.016;2024-02-28T13:01:28;5.20;92.70
420;DHT22;42600;54.408;13.016;2024-02-28T13:03:55;5.30;92.70
420;DHT22;42600;54.408;13.016;2024-02-28T13:06:22;5.30;92.70
420;DHT22;42600;54.408;13.016;2024-02-28T13:08:48;5.40;92.70
420;DHT22;42600;54.408;13.016;2024-02-28T13:11:17;5.40;92.70
420;DHT22;42600;54.408;13.016;2024-02-28T13:13:45;5.40;92.70
420;DHT22;42600;54.408;13.016;2024-02-28T13:16:12;5.50;92.70
420;DHT22;42600;54.408;13.016;2024-02-28T13:18:38;5.50;92.70
420;DHT22;42600;54.408;13.016;2024-02-28T13:21:05;5.50;92.70
420;DHT22;42600;54.408;13.016;2024-02-28T13:23:31;5.50;92.70
420;DHT22;42600;54.408;13.016;2024-02-28T13:25:59;5.60;92.70
420;DHT22;42600;54.408;13.016;2024-02-28T13:28:26;5.60;92.70
420;DHT22;42600;54.408;13.016;2024-02-28T13:30:56;5.60;92.70
420;DHT22;42600;54.408;13.016;2024-02-28T13:33:23;5.60;92.70
420;DHT22;42600;54.408;13.016;2024-02-28T13:35:49;5.60;92.70
420;DHT22;42600;54.408;13.016;2024-02-28T13:38:17;5.70;92.70
420;DHT22;42600;54.408;13.016;2024-02-28T13:40:43;5.70;92.70
420;DHT22;42600;54.408;13.016;2024-02-28T13:43:11;5.70;92.70
420;DHT22;42600;54.408;13.016;2024-02-28T13:45:38;5.70;92.70
420;DHT22;42600;54.408;13.016;2024-02-28T13:48:15;5.70;92.70
420;DHT22;42600;54.408;13.016;2024-02-28T13:50:42;5.80;92.70
420;DHT22;42600;54.408;13.016;2024-02-28T13:53:09;5.80;92.70
420;DHT22;42600;54.408;13.016;2024-02-28T13:55:35;5.80;92.70
420;DHT22;42600;54.408;13.016;2024-02-28T13:58:02;5.80;92.70
420;DHT22;42600;54.408;13.016;2024-02-28T14:00:29;5.80;92.70
420;DHT22;42600;54.408;13.016;2024-02-28T14:02:55;5.90;92.70
420;DHT22;42600;54.408;13.016;2024-02-28T14:05:23;5.90;92.70
420;DHT22;42600;54.408;13.016;2024-02-28T14:07:50;6.00;92.70
420;DHT22;42600;54.408;13.016;2024-02-28T14:10:16;6.00;92.70
420;DHT22;42600;54.408;13.016;2024-02-28T14:12:43;6.00;92.70
420;DHT22;42600;54.408;13.016;2024-02-28T14:15:09;6.00;92.70
420;DHT22;42600;54.408;13.016;2024-02-28T14:17:37;6.00;92.70
420;DHT22;42600;54.408;13.016;2024-02-28T14:20:05;6.00;92.70
420;DHT22;42600;54.408;13.016;2024-02-28T14:22:33;6.10;92.70
420;DHT22;42600;54.408;13.016;2024-02-28T14:24:59;6.10;92.70
420;DHT22;42600;54.408;13.016;2024-02-28T14:27:26;6.10;92.70
420;DHT22;42600;54.408;13.016;2024-02-28T14:29:58;6.10;92.70
420;DHT22;42600;54.408;13.016;2024-02-28T14:32:24;6.10;92.70
420;DHT22;42600;54.408;13.016;2024-02-28T14:34:51;6.20;92.70
420;DHT22;42600;54.408;13.016;2024-02-28T14:37:19;6.10;92.70
420;DHT22;42600;54.408;13.016;2024-02-28T14:39:47;6.20;92.70
420;DHT22;42600;54.408;13.016;2024-02-28T14:42:13;6.20;92.70
420;DHT22;42600;54.408;13.016;2024-02-28T14:44:40;6.20;92.70
420;DHT22;42600;54.408;13.016;2024-02-28T14:47:07;6.20;92.70
420;DHT22;42600;54.408;13.016;2024-02-28T14:49:33;6.20;92.70
420;DHT22;42600;54.408;13.016;2024-02-28T14:52:00;6.20;92.70
420;DHT22;42600;54.408;13.016;2024-02-28T14:54:28;6.20;92.70
420;DHT22;42600;54.408;13.016;2024-02-28T14:56:56;6.20;92.70
420;DHT22;42600;54.408;13.016;2024-02-28T14:59:22;6.20;92.70
420;DHT22;42600;54.408;13.016;2024-02-28T15:01:49;6.20;92.70
420;DHT22;42600;54.408;13.016;2024-02-28T15:04:16;6.20;92.70
420;DHT22;42600;54.408;13.016;2024-02-28T15:06:42;6.20;92.70
420;DHT22;42600;54.408;13.016;2024-02-28T15:09:09;6.20;92.70
420;DHT22;42600;54.408;13.016;2024-02-28T15:11:36;6.20;92.70
420;DHT22;42600;54.408;13.016;2024-02-28T15:14:04;6.10;92.70
420;DHT22;42600;54.408;13.016;2024-02-28T15:16:31;6.20;92.70
420;DHT22;42600;54.408;13.016;2024-02-28T15:18:57;6.10;92.70
420;DHT22;42600;54.408;13.016;2024-02-28T15:21:24;6.10;92.70
420;DHT22;42600;54.408;13.016;2024-02-28T15:23:52;6.10;92.70
420;DHT22;42600;54.408;13.016;2024-02-28T15:26:18;6.20;92.70
420;DHT22;42600;54.408;13.016;2024-02-28T15:28:45;6.20;92.70
420;DHT22;42600;54.408;13.016;2024-02-28T15:31:13;6.20;92.70
420;DHT22;42600;54.408;13.016;2024-02-28T15:33:39;6.10;92.70
420;DHT22;42600;54.408;13.016;2024-02-28T15:36:06;6.20;92.70
420;DHT22;42600;54.408;13.016;2024-02-28T15:38:33;6.20;92.70
420;DHT22;42600;54.408;13.016;2024-02-28T15:41:00;6.10;92.70
420;DHT22;42600;54.408;13.016;2024-02-28T15:43:27;6.20;92.70
420;DHT22;42600;54.408;13.016;2024-02-28T15:45:53;6.10;92.70
420;DHT22;42600;54.408;13.016;2024-02-28T15:48:21;6.10;92.70
420;DHT22;42600;54.408;13.016;2024-02-28T15:50:48;6.20;92.70
420;DHT22;42600;54.408;13.016;2024-02-28T15:53:16;6.20;92.70
420;DHT22;42600;54.408;13.016;2024-02-28T15:55:43;6.10;92.70
420;DHT22;42600;54.408;13.016;2024-02-28T15:58:09;6.10;92.70
420;DHT22;42600;54.408;13.016;2024-02-28T16:00:36;6.10;92.70